Time;durP1;ratioP1;P1;durP2;ratioP2;P2;SDS_P1;SDS_P2;PMS_P1;PMS_P2;Temp;Humidity;BMP_temperature;BMP_pressure;BME280_temperature;BME280_humidity;BME280_pressure;Samples;Min_cycle;Max_cycle;Signal;HPM_P1;HPM_P2
2023/09/08 00:01:01;;;;;;;5.40;4.17;;;24.70;90.20;;;;;;6186942;23;20898;-96
2023/09/08 00:03:28;;;;;;;4.00;3.60;;;24.60;90.10;;;;;;6186910;23;20765;-96
2023/09/08 00:05:54;;;;;;;3.93;3.63;;;24.60;90.10;;;;;;6187245;23;20534;-95
2023/09/08 00:08:21;;;;;;;3.80;3.50;;;24.60;90.10;;;;;;6187114;23;20407;-96
2023/09/08 00:10:48;;;;;;;3.27;3.07;;;24.60;90.10;;;;;;6187263;23;20437;-96
2023/09/08 00:13:15;;;;;;;3.73;3.53;;;24.60;90.10;;;;;;6186951;23;20846;-96
2023/09/08 00:15:42;;;;;;;3.20;3.00;;;24.60;90.10;;;;;;6187029;23;20466;-95
2023/09/08 00:18:11;;;;;;;3.60;3.40;;;24.60;90.10;;;;;;6186988;23;20430;-96
2023/09/08 00:20:38;;;;;;;3.83;3.43;;;24.60;90.10;;;;;;6187578;23;20406;-96
2023/09/08 00:23:05;;;;;;;3.60;3.30;;;24.60;90.10;;;;;;6187128;23;20407;-95
2023/09/08 00:25:32;;;;;;;3.40;3.20;;;24.60;90.10;;;;;;6186639;23;20466;-96
2023/09/08 00:27:58;;;;;;;3.50;3.30;;;24.60;90.10;;;;;;6186520;23;20889;-96
2023/09/08 00:30:25;;;;;;;4.10;3.80;;;24.60;90.10;;;;;;6186905;23;20438;-87
2023/09/08 00:32:52;;;;;;;3.67;3.37;;;24.60;90.10;;;;;;6186722;23;20932;-96
2023/09/08 00:35:20;;;;;;;3.20;3.00;;;24.60;90.00;;;;;;6186869;23;20453;-96
2023/09/08 00:37:47;;;;;;;5.77;3.13;;;24.70;90.10;;;;;;6186357;23;20478;-96
2023/09/08 00:40:14;;;;;;;3.60;3.30;;;24.60;90.00;;;;;;6187134;23;20395;-96
2023/09/08 00:42:41;;;;;;;3.50;3.17;;;24.60;90.00;;;;;;6186467;23;20434;-96
2023/09/08 00:45:08;;;;;;;4.07;3.77;;;24.60;90.00;;;;;;6187739;23;20478;-87
2023/09/08 00:47:35;;;;;;;3.60;3.40;;;24.60;90.00;;;;;;6187162;23;20409;-88
2023/09/08 00:50:03;;;;;;;3.47;3.27;;;24.60;90.00;;;;;;6186906;23;20409;-96
2023/09/08 00:52:33;;;;;;;3.03;2.83;;;24.60;90.00;;;;;;6187765;23;20403;-96
2023/09/08 00:55:00;;;;;;;3.67;3.40;;;24.60;90.00;;;;;;6186468;23;20394;-96
2023/09/08 00:57:27;;;;;;;4.10;3.80;;;24.60;90.00;;;;;;6186880;23;20398;-96
2023/09/08 00:59:54;;;;;;;4.03;3.73;;;24.60;90.00;;;;;;6186763;23;20402;-96
2023/09/08 01:02:22;;;;;;;3.13;2.93;;;24.60;90.00;;;;;;6186841;23;20399;-96
2023/09/08 01:04:49;;;;;;;3.40;3.10;;;24.60;90.00;;;;;;6186215;23;20485;-96
2023/09/08 01:07:17;;;;;;;3.63;3.33;;;24.50;89.90;;;;;;6186421;23;20450;-95
2023/09/08 01:09:46;;;;;;;3.50;3.30;;;24.60;90.30;;;;;;6186393;23;20402;-96
2023/09/08 01:12:13;;;;;;;2.90;2.70;;;24.60;90.00;;;;;;6186324;23;20405;-88
2023/09/08 01:14:40;;;;;;;4.37;3.50;;;24.60;90.00;;;;;;6186637;23;20495;-96
2023/09/08 01:17:06;;;;;;;4.00;3.70;;;24.60;90.00;;;;;;6186308;23;20411;-87
2023/09/08 01:19:33;;;;;;;3.83;3.30;;;24.60;90.00;;;;;;6186166;23;20403;-96
2023/09/08 01:22:32;;;;;;;4.00;3.70;;;24.60;90.00;;;;;;6186823;23;20438;-96
2023/09/08 01:25:16;;;;;;;3.70;3.40;;;24.60;90.00;;;;;;6186399;23;20474;-96
2023/09/08 01:27:48;;;;;;;3.67;3.47;;;24.60;90.00;;;;;;6187817;23;20480;-96
2023/09/08 01:30:16;;;;;;;3.30;3.10;;;24.60;90.00;;;;;;6188140;23;20386;-96
2023/09/08 01:32:43;;;;;;;3.47;3.27;;;24.60;90.00;;;;;;6188010;23;20481;-96
2023/09/08 01:35:11;;;;;;;3.90;3.60;;;24.60;90.00;;;;;;6188295;23;20473;-96
2023/09/08 01:37:41;;;;;;;3.57;3.27;;;24.60;90.00;;;;;;6188579;23;20486;-96
2023/09/08 01:40:09;;;;;;;3.50;3.30;;;24.60;90.00;;;;;;6188445;23;20466;-95
2023/09/08 01:42:38;;;;;;;3.30;3.10;;;24.60;90.00;;;;;;6188453;23;20399;-96
2023/09/08 01:45:05;;;;;;;3.53;3.27;;;24.60;90.00;;;;;;6188349;23;20477;-96
2023/09/08 01:47:32;;;;;;;3.37;3.10;;;24.60;89.90;;;;;;6188173;23;20450;-96
2023/09/08 01:49:59;;;;;;;3.20;3.00;;;24.60;90.00;;;;;;6189006;23;20442;-96
2023/09/08 01:52:27;;;;;;;2.83;2.63;;;24.50;89.90;;;;;;6188248;23;20429;-96
2023/09/08 01:54:53;;;;;;;3.00;2.80;;;24.60;90.00;;;;;;6188192;23;20407;-96
2023/09/08 01:57:20;;;;;;;3.00;2.80;;;24.60;90.00;;;;;;6188301;23;20407;-96
2023/09/08 01:59:48;;;;;;;3.47;3.13;;;24.60;89.90;;;;;;6188013;23;20403;-95
2023/09/08 02:02:15;;;;;;;3.40;3.13;;;24.60;89.90;;;;;;6188138;23;20430;-96
2023/09/08 02:04:42;;;;;;;3.60;3.40;;;24.60;89.80;;;;;;6187685;23;20517;-96
2023/09/08 02:07:09;;;;;;;3.37;3.17;;;24.50;89.80;;;;;;6187855;23;20957;-96
2023/09/08 02:09:37;;;;;;;3.33;3.03;;;24.50;89.70;;;;;;6188467;23;20433;-96
2023/09/08 02:12:05;;;;;;;3.67;3.43;;;24.50;90.20;;;;;;6187650;23;20909;-96
2023/09/08 02:14:31;;;;;;;3.03;2.83;;;24.50;89.70;;;;;;6188123;23;20393;-96
2023/09/08 02:17:00;;;;;;;3.30;3.00;;;24.50;89.70;;;;;;6188080;23;20950;-96
2023/09/08 02:19:27;;;;;;;3.17;2.97;;;24.50;89.80;;;;;;6188820;23;20394;-94
2023/09/08 02:21:53;;;;;;;3.00;2.80;;;24.50;89.80;;;;;;6188215;23;20399;-96
2023/09/08 02:24:20;;;;;;;3.50;3.20;;;24.50;89.70;;;;;;6187919;23;20399;-95
2023/09/08 02:26:47;;;;;;;3.30;3.10;;;24.50;89.80;;;;;;6187898;23;20761;-96
2023/09/08 02:29:14;;;;;;;3.77;3.57;;;24.50;89.70;;;;;;6188170;23;20402;-96
2023/09/08 02:31:41;;;;;;;4.33;3.50;;;24.60;89.80;;;;;;6187978;23;20492;-96
2023/09/08 02:34:09;;;;;;;3.10;2.90;;;24.50;89.80;;;;;;6187783;23;20453;-95
2023/09/08 02:36:36;;;;;;;3.43;3.13;;;24.50;89.60;;;;;;6187367;23;20411;-93
2023/09/08 02:39:02;;;;;;;3.20;3.00;;;24.50;89.70;;;;;;6187083;23;20494;-96
2023/09/08 02:41:29;;;;;;;3.50;3.30;;;24.50;89.70;;;;;;6188073;23;20490;-96
2023/09/08 02:43:56;;;;;;;3.50;3.30;;;24.50;89.80;;;;;;6187484;23;20486;-89
2023/09/08 02:46:24;;;;;;;3.33;3.13;;;24.50;89.70;;;;;;6188461;23;20446;-96
2023/09/08 02:48:52;;;;;;;3.43;3.23;;;24.50;89.70;;;;;;6187781;23;20391;-96
2023/09/08 02:51:20;;;;;;;3.80;3.50;;;24.70;90.00;;;;;;6187354;23;20407;-96
2023/09/08 02:53:47;;;;;;;3.20;3.00;;;24.50;89.70;;;;;;6187674;23;20490;-88
2023/09/08 02:56:14;;;;;;;3.00;2.80;;;24.50;89.70;;;;;;6187256;23;20493;-96
2023/09/08 02:58:41;;;;;;;3.30;3.00;;;24.50;89.80;;;;;;6187679;23;20425;-96
2023/09/08 03:01:13;;;;;;;3.23;3.03;;;24.50;89.70;;;;;;6187788;23;20403;-94
2023/09/08 03:03:40;;;;;;;3.17;2.97;;;24.50;89.70;;;;;;6187486;23;20442;-96
2023/09/08 03:06:07;;;;;;;4.17;3.80;;;24.50;89.80;;;;;;6187557;23;20761;-88
2023/09/08 03:08:36;;;;;;;2.77;2.57;;;24.50;89.80;;;;;;6187653;23;20486;-96
2023/09/08 03:11:04;;;;;;;3.17;2.97;;;24.50;89.70;;;;;;6187719;23;20407;-96
2023/09/08 03:13:31;;;;;;;3.47;3.17;;;24.50;89.70;;;;;;6187517;23;20405;-96
2023/09/08 03:15:58;;;;;;;2.80;2.60;;;24.50;89.70;;;;;;6187986;23;20399;-96
2023/09/08 03:18:24;;;;;;;3.20;3.00;;;24.50;89.70;;;;;;6187687;23;20426;-96
2023/09/08 03:20:51;;;;;;;3.23;3.03;;;24.50;89.70;;;;;;6187588;23;20399;-96
2023/09/08 03:23:18;;;;;;;3.40;3.20;;;24.50;89.70;;;;;;6187649;23;20407;-96
2023/09/08 03:25:46;;;;;;;3.40;3.10;;;24.50;89.70;;;;;;6187655;23;20394;-96
2023/09/08 03:28:13;;;;;;;3.17;2.97;;;24.50;89.70;;;;;;6187875;23;20403;-95
2023/09/08 03:30:40;;;;;;;3.07;2.87;;;24.50;89.60;;;;;;6187440;23;20399;-96
2023/09/08 03:33:06;;;;;;;2.80;2.60;;;24.50;89.70;;;;;;6187264;23;20493;-95
2023/09/08 03:35:33;;;;;;;2.93;2.73;;;24.50;89.50;;;;;;6186877;23;20488;-94
2023/09/08 03:38:00;;;;;;;2.53;2.33;;;24.50;89.50;;;;;;6187444;23;20509;-95
2023/09/08 03:40:27;;;;;;;3.20;3.00;;;24.50;89.60;;;;;;6187650;23;20730;-94
2023/09/08 03:42:55;;;;;;;3.23;3.03;;;24.50;89.50;;;;;;6187484;23;20785;-96
2023/09/08 03:45:21;;;;;;;3.43;3.23;;;24.50;89.50;;;;;;6187453;23;20405;-96
2023/09/08 03:47:48;;;;;;;3.47;3.27;;;24.50;89.50;;;;;;6187224;23;20446;-96
2023/09/08 03:50:15;;;;;;;3.17;2.73;;;24.50;89.50;;;;;;6187365;23;20497;-96
2023/09/08 03:52:42;;;;;;;3.97;3.67;;;24.50;89.50;;;;;;6186840;23;20921;-96
2023/09/08 03:55:09;;;;;;;3.33;3.13;;;24.50;89.40;;;;;;6187268;23;20421;-95
2023/09/08 03:57:36;;;;;;;3.97;3.67;;;24.50;89.40;;;;;;6187309;23;20478;-96
2023/09/08 04:00:06;;;;;;;2.97;2.77;;;24.50;89.40;;;;;;6187145;23;20399;-96
2023/09/08 04:02:33;;;;;;;3.30;3.10;;;24.50;89.40;;;;;;6186906;23;20379;-96
2023/09/08 04:05:00;;;;;;;3.27;2.93;;;24.50;89.40;;;;;;6187531;23;20439;-96
2023/09/08 04:07:28;;;;;;;3.23;2.93;;;24.50;89.30;;;;;;6186468;23;20450;-90
2023/09/08 04:09:55;;;;;;;3.27;3.07;;;24.50;89.30;;;;;;6186225;23;20405;-95
2023/09/08 04:12:21;;;;;;;3.67;3.47;;;24.50;89.30;;;;;;6187057;23;20407;-96
2023/09/08 04:14:49;;;;;;;3.23;2.93;;;24.50;89.30;;;;;;6186880;23;20409;-96
2023/09/08 04:17:17;;;;;;;3.10;2.90;;;24.50;89.40;;;;;;6187091;23;20407;-96
2023/09/08 04:19:43;;;;;;;3.37;3.07;;;24.50;89.40;;;;;;6187108;23;20403;-96
2023/09/08 04:22:10;;;;;;;3.40;3.20;;;24.50;89.30;;;;;;6188578;23;20423;-96
2023/09/08 04:24:37;;;;;;;4.90;4.50;;;24.50;89.40;;;;;;6186937;23;20446;-93
2023/09/08 04:27:05;;;;;;;7.80;5.60;;;24.50;89.50;;;;;;6186727;23;20450;-93
2023/09/08 04:29:31;;;;;;;7.07;5.50;;;24.40;85.70;;;;;;6186068;23;20409;-94
2023/09/08 04:31:59;;;;;;;6.87;6.30;;;24.20;85.00;;;;;;6186444;23;20403;-90
2023/09/08 04:34:27;;;;;;;6.43;5.83;;;24.10;85.10;;;;;;6186105;23;20434;-93
2023/09/08 04:36:54;;;;;;;13.83;6.13;;;24.00;85.30;;;;;;6186066;23;20403;-89
2023/09/08 04:39:23;;;;;;;9.80;6.23;;;23.80;85.30;;;;;;6208462;23;20394;-93
2023/09/08 14:57:03;;;;;;;3.27;3.07;;;24.90;89.60;;;;;;6201826;23;20542;-91
2023/09/08 14:59:30;;;;;;;3.13;2.93;;;24.90;89.50;;;;;;6186358;23;20733;-89
2023/09/08 15:01:57;;;;;;;3.37;3.17;;;24.80;89.50;;;;;;6186453;23;20406;-89
2023/09/08 15:04:24;;;;;;;3.70;2.87;;;24.90;89.50;;;;;;6200776;23;20394;-87
2023/09/08 16:01:35;;;;;;;3.83;3.53;;;24.90;89.60;;;;;;6207697;23;20960;-96
2023/09/08 16:04:05;;;;;;;3.10;2.90;;;24.90;90.00;;;;;;6209346;23;20403;-96
2023/09/08 16:06:35;;;;;;;3.40;3.17;;;24.90;90.00;;;;;;6157650;23;20445;-96
2023/09/08 16:09:03;;;;;;;4.23;3.00;;;24.90;89.70;;;;;;6121248;23;20433;-96
2023/09/08 16:11:30;;;;;;;3.10;2.90;;;24.90;89.80;;;;;;6119092;23;20941;-96
2023/09/08 16:13:57;;;;;;;3.97;3.57;;;25.00;89.90;;;;;;6117671;23;20468;-96
2023/09/08 16:16:24;;;;;;;3.20;3.00;;;25.00;89.90;;;;;;6116695;23;20401;-96
2023/09/08 16:18:52;;;;;;;2.97;2.77;;;24.90;89.70;;;;;;6116178;23;20421;-96
2023/09/08 16:21:20;;;;;;;5.40;3.30;;;24.90;89.80;;;;;;6117588;23;20456;-95
2023/09/08 16:23:47;;;;;;;2.97;2.77;;;25.00;89.90;;;;;;6118331;23;20413;-96
2023/09/08 16:26:14;;;;;;;4.10;3.80;;;24.90;89.90;;;;;;6117848;23;20418;-96
2023/09/08 16:28:40;;;;;;;3.53;2.97;;;24.90;89.90;;;;;;6118127;23;20752;-95
2023/09/08 16:31:08;;;;;;;3.43;2.90;;;25.00;90.00;;;;;;6115803;23;20401;-91
2023/09/08 16:33:35;;;;;;;3.33;3.10;;;25.00;90.00;;;;;;6118830;23;20468;-96
2023/09/08 16:36:03;;;;;;;3.33;3.03;;;25.00;90.00;;;;;;6117752;23;20405;-92
2023/09/08 16:38:32;;;;;;;4.30;3.63;;;24.90;89.80;;;;;;6124168;23;20426;-95
2023/09/08 16:43:35;;;;;;;3.80;3.17;;;25.00;90.10;;;;;;6184061;23;21008;-92
2023/09/08 16:46:01;;;;;;;3.30;3.10;;;24.90;90.00;;;;;;6187907;23;20442;-96
2023/09/08 16:48:29;;;;;;;3.27;3.07;;;25.00;90.10;;;;;;6186441;23;20446;-91
2023/09/08 16:50:55;;;;;;;2.77;2.57;;;25.00;90.10;;;;;;6187216;23;20441;-95
2023/09/08 16:55:59;;;;;;;4.90;3.20;;;25.00;90.00;;;;;;6188030;23;20476;-92
2023/09/08 16:58:26;;;;;;;4.17;3.07;;;24.90;90.10;;;;;;6185992;23;20407;-92
2023/09/08 17:00:52;;;;;;;4.50;3.20;;;24.90;90.10;;;;;;6186431;23;20409;-93
2023/09/08 17:03:19;;;;;;;3.00;2.80;;;25.00;90.20;;;;;;6186863;23;20487;-91
2023/09/08 17:05:47;;;;;;;3.27;3.07;;;25.00;90.20;;;;;;6187219;23;20407;-91
2023/09/08 17:08:13;;;;;;;3.07;2.87;;;25.00;90.20;;;;;;6185580;23;20458;-92
2023/09/08 17:10:40;;;;;;;3.10;2.70;;;25.00;90.20;;;;;;6187508;23;20430;-91
2023/09/08 17:13:08;;;;;;;3.57;3.37;;;25.00;90.20;;;;;;6187605;23;20498;-91
2023/09/08 17:15:35;;;;;;;3.40;3.10;;;25.00;90.20;;;;;;6187335;23;20498;-92
2023/09/08 17:18:02;;;;;;;3.83;3.53;;;25.00;90.20;;;;;;6187825;23;20454;-91
2023/09/08 17:20:30;;;;;;;3.67;3.37;;;25.00;90.20;;;;;;6187407;23;20792;-92
2023/09/08 17:22:57;;;;;;;3.43;3.20;;;25.00;90.20;;;;;;6187201;23;20918;-92
2023/09/08 17:25:24;;;;;;;4.30;3.13;;;25.00;90.20;;;;;;6187693;23;20401;-91
2023/09/08 17:27:51;;;;;;;3.93;3.63;;;25.00;90.20;;;;;;6187440;23;20737;-91
2023/09/08 17:30:19;;;;;;;3.90;3.23;;;25.00;90.20;;;;;;6187682;23;20399;-91
2023/09/08 17:32:45;;;;;;;3.30;3.10;;;25.00;90.20;;;;;;6187556;23;20409;-91
2023/09/08 17:35:12;;;;;;;4.90;3.13;;;25.00;90.20;;;;;;6187443;23;20399;-92
2023/09/08 17:37:39;;;;;;;3.10;2.80;;;24.90;90.20;;;;;;6187556;23;20430;-91
2023/09/08 17:40:09;;;;;;;4.10;2.93;;;24.90;90.20;;;;;;6187350;23;20450;-91
2023/09/08 17:42:36;;;;;;;4.83;3.80;;;25.00;90.30;;;;;;6187050;23;20898;-91
2023/09/08 17:45:04;;;;;;;3.87;3.57;;;25.00;90.30;;;;;;6186435;23;20431;-91
2023/09/08 17:47:32;;;;;;;3.90;3.60;;;24.90;90.30;;;;;;6186346;23;20439;-91
2023/09/08 17:49:58;;;;;;;4.83;3.70;;;25.00;90.30;;;;;;6187558;23;20903;-91
2023/09/08 17:52:25;;;;;;;4.00;3.70;;;25.00;90.30;;;;;;6187000;23;20733;-91
2023/09/08 17:54:52;;;;;;;5.00;3.90;;;24.90;90.30;;;;;;6186953;23;20427;-91
2023/09/08 17:57:19;;;;;;;3.90;3.60;;;24.90;90.30;;;;;;6187374;23;20391;-91
2023/09/08 17:59:45;;;;;;;4.00;3.70;;;25.00;90.40;;;;;;6186933;23;20494;-91
2023/09/08 18:02:12;;;;;;;4.60;4.30;;;24.90;90.30;;;;;;6186872;23;20486;-91
2023/09/08 18:04:42;;;;;;;3.57;3.37;;;24.90;90.30;;;;;;6186767;23;20407;-92
2023/09/08 18:07:09;;;;;;;4.00;3.70;;;25.00;90.40;;;;;;6186857;23;20389;-91
2023/09/08 18:09:36;;;;;;;3.80;3.60;;;24.90;90.30;;;;;;6186444;23;20959;-91
2023/09/08 18:12:03;;;;;;;3.67;3.37;;;25.00;90.40;;;;;;6186817;23;20417;-92
2023/09/08 18:14:30;;;;;;;3.87;3.57;;;24.90;90.40;;;;;;6187097;23;20913;-92
2023/09/08 18:16:57;;;;;;;3.67;3.37;;;24.90;90.40;;;;;;6187102;23;20441;-91
2023/09/08 18:19:24;;;;;;;3.60;3.30;;;25.00;90.40;;;;;;6186742;23;20450;-91
2023/09/08 18:21:52;;;;;;;2.93;2.73;;;24.90;90.40;;;;;;6187001;23;20786;-91
2023/09/08 18:24:19;;;;;;;3.57;3.30;;;24.90;90.40;;;;;;6187065;23;20489;-91
2023/09/08 18:26:45;;;;;;;3.47;3.27;;;25.00;90.40;;;;;;6186578;23;20926;-91
2023/09/08 18:29:12;;;;;;;3.50;3.30;;;25.00;90.40;;;;;;6186409;23;20553;-91
2023/09/08 18:31:40;;;;;;;3.43;3.23;;;25.00;90.40;;;;;;6186659;23;20441;-91
2023/09/08 18:34:08;;;;;;;3.83;3.57;;;24.90;90.40;;;;;;6186828;23;20407;-91
2023/09/08 18:36:35;;;;;;;3.87;3.57;;;24.90;90.40;;;;;;6186633;23;20446;-91
2023/09/08 18:39:04;;;;;;;3.60;3.40;;;25.00;90.40;;;;;;6186400;23;20898;-91
2023/09/08 18:41:31;;;;;;;4.00;3.70;;;25.00;90.40;;;;;;6186861;23;20427;-91
2023/09/08 18:43:57;;;;;;;3.90;3.60;;;24.90;90.40;;;;;;6186702;23;20403;-91
2023/09/08 18:46:24;;;;;;;3.50;3.30;;;24.90;90.40;;;;;;6186238;23;20402;-91
2023/09/08 18:48:51;;;;;;;3.77;3.53;;;25.00;90.50;;;;;;6186947;23;20478;-91
2023/09/08 18:51:18;;;;;;;3.63;3.33;;;24.90;90.40;;;;;;6186798;23;20409;-92
2023/09/08 18:53:45;;;;;;;3.80;3.50;;;24.90;90.40;;;;;;6186295;23;20894;-91
2023/09/08 18:56:17;;;;;;;3.50;3.30;;;24.90;90.40;;;;;;6186507;23;20489;-91
2023/09/08 18:58:44;;;;;;;3.77;3.57;;;24.90;90.40;;;;;;6186642;23;20379;-91
2023/09/08 19:01:11;;;;;;;4.07;3.77;;;24.90;90.40;;;;;;6186322;23;20894;-91
2023/09/08 19:03:37;;;;;;;3.57;3.37;;;24.90;90.40;;;;;;6186655;23;20486;-91
2023/09/08 19:06:05;;;;;;;3.70;3.50;;;24.90;90.80;;;;;;6186622;23;20398;-91
2023/09/08 19:08:32;;;;;;;3.20;3.00;;;24.90;90.40;;;;;;6186290;23;20474;-91
2023/09/08 19:10:58;;;;;;;3.63;3.43;;;24.90;90.50;;;;;;6186488;23;20506;-91
2023/09/08 19:13:27;;;;;;;3.30;3.10;;;25.00;90.50;;;;;;6186259;23;20405;-91
2023/09/08 19:15:53;;;;;;;4.17;3.87;;;25.00;90.50;;;;;;6186280;23;20710;-91
2023/09/08 19:18:20;;;;;;;3.70;3.50;;;24.90;90.50;;;;;;6186458;23;20413;-91
2023/09/08 19:20:47;;;;;;;3.80;3.50;;;25.00;90.50;;;;;;6186393;23;20506;-91
2023/09/08 19:23:14;;;;;;;4.10;3.80;;;25.00;90.60;;;;;;6186086;23;20409;-91
2023/09/08 19:25:42;;;;;;;3.70;3.40;;;24.90;90.50;;;;;;6185910;23;20407;-91
2023/09/08 19:28:09;;;;;;;4.20;3.90;;;24.90;90.50;;;;;;6186281;23;20443;-91
2023/09/08 19:30:37;;;;;;;4.07;3.47;;;24.90;90.50;;;;;;6186539;23;20727;-91
2023/09/08 19:33:04;;;;;;;3.70;3.40;;;25.00;90.50;;;;;;6186033;23;20481;-91
2023/09/08 19:35:34;;;;;;;3.90;3.60;;;24.90;90.50;;;;;;6186280;23;20485;-91
2023/09/08 19:38:01;;;;;;;3.43;3.23;;;25.00;90.60;;;;;;6186553;23;20499;-91
2023/09/08 19:40:30;;;;;;;4.70;4.40;;;25.00;90.60;;;;;;6186374;23;20423;-91
2023/09/08 19:42:57;;;;;;;4.20;3.90;;;25.00;90.60;;;;;;6186359;23;20425;-91
2023/09/08 19:45:24;;;;;;;4.20;3.90;;;24.90;90.50;;;;;;6186364;23;20438;-91
2023/09/08 19:47:52;;;;;;;4.10;3.80;;;25.00;90.60;;;;;;6186616;23;20769;-91
2023/09/08 19:50:19;;;;;;;3.60;3.37;;;24.90;90.50;;;;;;6185845;23;20438;-91
2023/09/08 19:52:45;;;;;;;3.97;3.67;;;24.90;90.50;;;;;;6186168;23;20734;-91
2023/09/08 19:55:12;;;;;;;3.80;3.50;;;24.90;90.50;;;;;;6186142;23;20439;-91
2023/09/08 19:57:39;;;;;;;3.97;3.77;;;24.90;90.50;;;;;;6185842;23;20436;-91
2023/09/08 20:00:08;;;;;;;4.07;3.70;;;24.90;90.50;;;;;;6186371;23;20445;-91
2023/09/08 20:02:34;;;;;;;4.13;3.83;;;24.90;90.50;;;;;;6186274;23;20486;-91
2023/09/08 20:05:03;;;;;;;3.93;3.60;;;24.90;90.60;;;;;;6186117;23;20481;-91
2023/09/08 20:07:29;;;;;;;4.00;3.70;;;24.90;90.60;;;;;;6186237;23;20478;-91
2023/09/08 20:09:56;;;;;;;4.30;4.00;;;24.90;90.50;;;;;;6185975;23;20457;-91
2023/09/08 20:12:23;;;;;;;3.20;3.00;;;24.90;90.60;;;;;;6185631;23;20414;-92
2023/09/08 20:14:50;;;;;;;4.77;4.00;;;24.90;90.60;;;;;;6186032;23;20399;-91
2023/09/08 20:17:17;;;;;;;4.40;4.00;;;24.90;90.60;;;;;;6185697;23;20794;-91
2023/09/08 20:19:44;;;;;;;4.17;3.87;;;24.90;90.60;;;;;;6186206;23;20481;-91
2023/09/08 20:22:12;;;;;;;3.67;3.37;;;25.00;90.60;;;;;;6185905;23;20472;-91
2023/09/08 20:24:41;;;;;;;3.93;3.63;;;24.90;90.60;;;;;;6185743;23;20430;-90
2023/09/08 20:27:10;;;;;;;4.10;3.90;;;24.90;90.60;;;;;;6185863;23;20756;-91
2023/09/08 20:29:37;;;;;;;4.50;4.20;;;24.90;90.60;;;;;;6186024;23;20447;-90
2023/09/08 20:32:04;;;;;;;4.20;3.80;;;24.90;90.60;;;;;;6185491;23;20449;-91
2023/09/08 20:34:31;;;;;;;4.13;3.83;;;24.90;90.60;;;;;;6185520;23;20405;-91
2023/09/08 20:36:58;;;;;;;4.77;4.40;;;24.90;90.60;;;;;;6185521;23;20967;-91
2023/09/08 20:39:26;;;;;;;4.63;4.27;;;24.90;90.60;;;;;;6185974;23;20395;-91
2023/09/08 20:41:53;;;;;;;3.60;3.40;;;24.90;90.60;;;;;;6185327;23;20415;-90
2023/09/08 20:44:19;;;;;;;4.03;3.73;;;24.90;90.60;;;;;;6185218;23;20489;-90
2023/09/08 20:46:46;;;;;;;3.87;3.63;;;24.90;90.60;;;;;;6185111;23;20399;-90
2023/09/08 20:49:13;;;;;;;4.87;4.57;;;24.90;90.60;;;;;;6185818;23;20454;-91
2023/09/08 20:51:40;;;;;;;3.83;3.53;;;24.90;90.70;;;;;;6185684;23;20441;-91
2023/09/08 20:54:07;;;;;;;4.67;4.33;;;24.90;90.60;;;;;;6185703;23;20493;-91
2023/09/08 20:56:35;;;;;;;4.03;3.73;;;24.90;90.60;;;;;;6185524;23;20433;-90
2023/09/08 20:59:03;;;;;;;5.07;3.93;;;24.90;90.70;;;;;;6185323;23;20399;-91
2023/09/08 21:01:30;;;;;;;4.10;3.80;;;24.90;90.60;;;;;;6185052;23;20407;-90
2023/09/08 21:03:57;;;;;;;4.13;3.83;;;24.90;90.60;;;;;;6184696;23;20399;-90
2023/09/08 21:06:23;;;;;;;4.13;3.73;;;24.90;90.70;;;;;;6184716;23;20925;-91
2023/09/08 21:08:50;;;;;;;3.80;3.60;;;24.90;90.60;;;;;;6185614;23;20446;-90
2023/09/08 21:11:17;;;;;;;4.07;3.77;;;24.90;90.60;;;;;;6185990;23;20505;-89
2023/09/08 21:13:45;;;;;;;4.03;3.73;;;25.00;90.70;;;;;;6186455;23;20717;-90
2023/09/08 21:16:12;;;;;;;4.87;4.47;;;24.90;90.60;;;;;;6186752;23;20406;-91
2023/09/08 21:18:45;;;;;;;4.40;4.10;;;25.00;90.70;;;;;;6185671;23;20410;-96
2023/09/08 21:21:11;;;;;;;4.10;3.80;;;24.90;90.60;;;;;;6185676;23;20478;-91
2023/09/08 21:23:39;;;;;;;5.17;4.67;;;24.90;90.70;;;;;;6185896;23;20434;-90
2023/09/08 21:26:06;;;;;;;4.57;4.27;;;24.90;90.70;;;;;;6185344;23;20414;-90
2023/09/08 21:28:42;;;;;;;4.87;4.47;;;24.90;90.70;;;;;;6185247;23;20407;-94
2023/09/08 21:31:10;;;;;;;5.10;4.63;;;25.00;90.70;;;;;;6185529;23;20390;-93
2023/09/08 21:33:37;;;;;;;5.27;4.37;;;25.00;90.70;;;;;;6185454;23;20417;-91
2023/09/08 21:36:04;;;;;;;4.57;4.17;;;25.00;90.70;;;;;;6185997;23;20909;-89
2023/09/08 21:38:31;;;;;;;4.53;4.13;;;25.00;90.70;;;;;;6185519;23;20409;-92
2023/09/08 21:40:58;;;;;;;4.67;4.30;;;25.00;90.60;;;;;;6185159;23;20427;-90
2023/09/08 21:43:25;;;;;;;4.63;4.03;;;25.00;90.60;;;;;;6185297;23;20469;-91
2023/09/08 21:46:01;;;;;;;5.37;4.97;;;25.00;90.70;;;;;;6186652;23;20417;-93
2023/09/08 21:48:31;;;;;;;10.97;6.87;;;24.90;90.70;;;;;;6186956;23;20899;-89
2023/09/08 21:50:57;;;;;;;7.73;7.03;;;24.90;91.10;;;;;;6187638;23;20390;-90
2023/09/08 21:53:24;;;;;;;8.27;7.30;;;24.90;91.10;;;;;;6187560;23;20493;-89
2023/09/08 21:55:51;;;;;;;13.10;8.53;;;24.90;91.30;;;;;;6187260;23;20430;-89
2023/09/08 21:58:18;;;;;;;11.50;7.37;;;24.90;91.40;;;;;;6186974;23;20491;-90
2023/09/08 22:00:45;;;;;;;8.00;7.20;;;24.90;91.50;;;;;;6187479;23;20494;-90
2023/09/08 22:03:12;;;;;;;8.97;8.00;;;24.90;91.50;;;;;;6187056;23;20405;-90
2023/09/08 22:05:42;;;;;;;17.97;8.17;;;24.90;91.60;;;;;;6187139;23;20490;-89
2023/09/08 22:08:08;;;;;;;9.73;8.83;;;24.90;91.60;;;;;;6187202;23;20395;-89
2023/09/08 22:10:35;;;;;;;10.30;9.30;;;24.90;91.70;;;;;;6186891;23;20541;-90
2023/09/08 22:13:02;;;;;;;10.23;8.57;;;24.90;91.80;;;;;;6187038;23;20910;-90
2023/09/08 22:15:29;;;;;;;8.70;7.80;;;24.80;91.80;;;;;;6187083;23;20438;-90
2023/09/08 22:17:56;;;;;;;11.93;9.23;;;24.80;91.80;;;;;;6187023;23;20961;-89
2023/09/08 22:20:26;;;;;;;8.80;7.43;;;24.80;91.70;;;;;;6187312;23;20501;-90
2023/09/08 22:22:54;;;;;;;10.70;8.40;;;24.80;91.70;;;;;;6186920;23;20404;-89
2023/09/08 22:25:21;;;;;;;9.67;7.50;;;24.90;91.60;;;;;;6186836;23;20398;-90
2023/09/08 22:27:48;;;;;;;10.00;7.00;;;24.90;91.50;;;;;;6186616;23;20886;-90
2023/09/08 22:30:15;;;;;;;9.07;8.17;;;25.00;91.40;;;;;;6187123;23;20509;-90
2023/09/08 22:32:42;;;;;;;10.07;7.60;;;24.90;91.30;;;;;;6187257;23;20891;-89
2023/09/08 22:35:11;;;;;;;8.13;7.23;;;24.90;91.20;;;;;;6186932;23;20410;-89
2023/09/08 22:37:37;;;;;;;8.53;7.00;;;25.00;91.10;;;;;;6187257;23;20721;-90
2023/09/08 22:40:08;;;;;;;7.70;7.00;;;25.00;91.10;;;;;;6186497;23;20760;-89
2023/09/08 22:42:35;;;;;;;8.40;7.00;;;25.00;91.00;;;;;;6186741;23;20483;-89
2023/09/08 22:45:04;;;;;;;7.80;6.27;;;25.00;91.00;;;;;;6186523;23;20890;-90
2023/09/08 22:47:31;;;;;;;11.27;6.30;;;25.00;91.00;;;;;;6187147;23;20730;-90
2023/09/08 22:49:59;;;;;;;7.53;6.70;;;25.00;90.90;;;;;;6186531;23;20450;-89
2023/09/08 22:52:26;;;;;;;10.80;7.13;;;25.00;90.90;;;;;;6186564;23;20399;-90
2023/09/08 22:54:53;;;;;;;6.60;6.10;;;25.00;90.90;;;;;;6186264;23;21070;-90
2023/09/08 22:57:21;;;;;;;7.30;6.70;;;25.00;90.90;;;;;;6186695;23;20547;-90
2023/09/08 22:59:48;;;;;;;7.87;7.07;;;25.00;90.90;;;;;;6186398;23;20903;-90
2023/09/08 23:02:15;;;;;;;7.77;7.03;;;25.00;90.90;;;;;;6186781;23;20399;-89
2023/09/08 23:04:41;;;;;;;7.33;6.63;;;25.00;90.80;;;;;;6185929;23;20482;-89
2023/09/08 23:07:12;;;;;;;12.13;7.37;;;25.00;90.80;;;;;;6186409;23;20409;-90
2023/09/08 23:09:40;;;;;;;7.10;6.40;;;25.00;90.80;;;;;;6187025;23;20482;-89
2023/09/08 23:12:08;;;;;;;7.20;6.50;;;25.00;90.80;;;;;;6186824;23;20395;-89
2023/09/08 23:14:37;;;;;;;8.03;7.17;;;25.00;90.80;;;;;;6186271;23;20391;-90
2023/09/08 23:17:04;;;;;;;6.87;6.27;;;25.00;90.80;;;;;;6187755;23;20399;-89
2023/09/08 23:19:31;;;;;;;7.93;6.80;;;25.00;90.80;;;;;;6186969;23;20406;-89
2023/09/08 23:21:58;;;;;;;7.07;6.47;;;25.00;90.80;;;;;;6186324;23;20917;-90
2023/09/08 23:24:25;;;;;;;6.30;5.80;;;25.00;90.80;;;;;;6186570;23;20406;-89
2023/09/08 23:26:52;;;;;;;9.87;5.33;;;25.00;90.70;;;;;;6185906;23;20399;-90
2023/09/08 23:29:19;;;;;;;8.37;6.20;;;25.00;90.80;;;;;;6186412;23;20446;-90
2023/09/08 23:31:47;;;;;;;6.67;6.07;;;25.00;90.80;;;;;;6185772;23;20399;-90
2023/09/08 23:34:14;;;;;;;6.53;5.90;;;25.00;90.70;;;;;;6186293;23;20490;-89
2023/09/08 23:36:41;;;;;;;6.10;5.50;;;25.00;90.70;;;;;;6186484;23;20413;-90
2023/09/08 23:39:09;;;;;;;8.53;6.30;;;25.10;90.80;;;;;;6185939;23;20411;-90
2023/09/08 23:41:37;;;;;;;6.37;5.87;;;25.00;90.70;;;;;;6186013;23;20406;-90
2023/09/08 23:44:04;;;;;;;6.30;5.83;;;25.00;90.70;;;;;;6186342;23;20402;-89
2023/09/08 23:46:31;;;;;;;6.13;5.43;;;25.00;90.70;;;;;;6186436;23;20474;-89
2023/09/08 23:48:59;;;;;;;6.63;6.03;;;25.00;90.70;;;;;;6186548;23;20703;-89
2023/09/08 23:51:26;;;;;;;6.57;6.07;;;25.00;90.70;;;;;;6186422;23;20525;-89
2023/09/08 23:53:52;;;;;;;6.77;6.23;;;25.00;90.70;;;;;;6186197;23;20418;-90
2023/09/08 23:56:19;;;;;;;6.60;6.00;;;25.00;90.70;;;;;;6185887;23;20462;-89
2023/09/08 23:58:46;;;;;;;6.83;6.23;;;25.00;90.70;;;;;;6186352;23;20403;-90
